Time;durP1;ratioP1;P1;durP2;ratioP2;P2;SDS_P1;SDS_P2;PMS_P1;PMS_P2;Temp;Humidity;BMP_temperature;BMP_pressure;BME280_temperature;BME280_humidity;BME280_pressure;Samples;Min_cycle;Max_cycle;Signal;HPM_P1;HPM_P2
2023/03/23 00:01:03;;;;;;;12.55;10.40;;;10.40;99.90;;;;;;5114011;28;20035;-82
2023/03/23 00:03:31;;;;;;;17.48;11.80;;;10.40;99.90;;;;;;5113658;28;20031;-82
2023/03/23 00:06:02;;;;;;;17.50;12.57;;;10.40;99.90;;;;;;5106865;28;20490;-81
2023/03/23 00:08:28;;;;;;;19.55;13.48;;;10.50;99.90;;;;;;5113788;28;20039;-82
2023/03/23 00:10:56;;;;;;;17.00;13.93;;;10.60;99.90;;;;;;5113661;28;20092;-81
2023/03/23 00:13:23;;;;;;;20.77;14.27;;;10.60;99.90;;;;;;5110241;28;20043;-81
2023/03/23 00:15:49;;;;;;;18.15;14.13;;;10.60;99.90;;;;;;5129586;27;20043;-81
2023/03/23 00:18:21;;;;;;;18.00;13.93;;;10.70;99.90;;;;;;5113516;28;20032;-82
2023/03/23 00:20:48;;;;;;;20.48;14.93;;;10.70;99.90;;;;;;5113706;28;20119;-82
2023/03/23 00:23:20;;;;;;;22.20;15.20;;;10.70;99.90;;;;;;5106950;28;20402;-81
2023/03/23 00:25:48;;;;;;;19.23;14.85;;;10.70;99.90;;;;;;5113124;28;20100;-81
2023/03/23 00:28:15;;;;;;;18.77;14.35;;;10.70;99.90;;;;;;5113373;28;20044;-82
2023/03/23 00:30:42;;;;;;;21.42;15.05;;;10.80;99.90;;;;;;5113278;28;20507;-82
2023/03/23 00:33:08;;;;;;;19.48;14.77;;;10.80;99.90;;;;;;5113180;28;20031;-81
2023/03/23 00:35:35;;;;;;;19.65;13.95;;;10.80;99.90;;;;;;5113244;28;20442;-81
2023/03/23 00:38:01;;;;;;;18.83;13.65;;;10.80;99.90;;;;;;5095980;28;20427;-82
2023/03/23 00:40:27;;;;;;;20.15;13.90;;;10.80;99.90;;;;;;5105895;28;20027;-82
2023/03/23 00:42:53;;;;;;;18.88;14.23;;;10.80;99.90;;;;;;5102960;28;20110;-82
2023/03/23 00:45:19;;;;;;;17.13;13.45;;;10.80;99.90;;;;;;5143568;27;20458;-82
2023/03/23 00:47:46;;;;;;;19.20;13.90;;;10.80;99.90;;;;;;5140394;27;20038;-82
2023/03/23 00:50:13;;;;;;;18.80;13.23;;;10.80;99.90;;;;;;5105552;28;20046;-82
2023/03/23 00:52:40;;;;;;;13.60;10.60;;;10.80;99.90;;;;;;5106526;28;20062;-82
2023/03/23 00:55:06;;;;;;;12.57;8.63;;;10.80;99.90;;;;;;5105744;28;20035;-82
2023/03/23 00:57:32;;;;;;;8.65;6.95;;;10.80;99.90;;;;;;5104986;28;20082;-82
2023/03/23 00:59:57;;;;;;;7.38;5.20;;;10.70;99.90;;;;;;5091666;28;20067;-82
2023/03/23 01:02:24;;;;;;;8.00;4.95;;;10.70;99.90;;;;;;5089140;28;20418;-82
2023/03/23 01:04:51;;;;;;;7.03;5.32;;;10.60;99.90;;;;;;5094878;28;20036;-82
2023/03/23 01:07:18;;;;;;;8.70;5.72;;;10.60;99.90;;;;;;5108500;28;20040;-81
2023/03/23 01:09:44;;;;;;;8.13;5.03;;;10.50;99.90;;;;;;5111812;28;20039;-82
2023/03/23 01:12:10;;;;;;;6.93;4.50;;;10.50;99.90;;;;;;5112871;28;20047;-82
2023/03/23 01:14:36;;;;;;;9.35;4.78;;;10.50;99.90;;;;;;5103957;28;20060;-83
2023/03/23 01:17:02;;;;;;;8.43;4.80;;;10.50;99.90;;;;;;5095751;28;20039;-82
2023/03/23 01:19:27;;;;;;;7.05;4.93;;;10.50;99.90;;;;;;5141340;27;20047;-82
2023/03/23 01:21:53;;;;;;;9.35;5.20;;;10.40;99.90;;;;;;5104509;28;20036;-82
2023/03/23 01:24:19;;;;;;;7.53;5.63;;;10.40;99.90;;;;;;5108603;28;20047;-82
2023/03/23 01:26:44;;;;;;;10.65;6.15;;;10.40;99.90;;;;;;5111814;28;20041;-82
2023/03/23 01:29:10;;;;;;;9.60;6.65;;;10.40;99.90;;;;;;5107678;28;20035;-82
2023/03/23 01:31:36;;;;;;;11.35;6.45;;;10.40;99.90;;;;;;5104587;28;20043;-82
2023/03/23 01:34:03;;;;;;;11.68;7.25;;;10.50;99.90;;;;;;5106739;28;20035;-82
2023/03/23 01:36:32;;;;;;;13.07;7.38;;;10.50;99.90;;;;;;5106934;28;20040;-82
2023/03/23 01:39:00;;;;;;;10.00;7.50;;;10.50;99.90;;;;;;5088467;28;20043;-82
2023/03/23 01:41:26;;;;;;;10.88;7.78;;;10.60;99.90;;;;;;5111647;28;20039;-82
2023/03/23 01:44:01;;;;;;;12.32;7.88;;;10.60;99.90;;;;;;5111961;28;20050;-81
2023/03/23 01:46:28;;;;;;;9.30;7.50;;;10.60;99.90;;;;;;5104917;28;20039;-83
2023/03/23 01:48:57;;;;;;;13.35;8.18;;;10.60;99.90;;;;;;5108031;28;20107;-82
2023/03/23 01:51:26;;;;;;;10.90;7.78;;;10.60;99.90;;;;;;5104505;28;20039;-81
2023/03/23 01:53:58;;;;;;;13.88;7.60;;;10.60;99.90;;;;;;5102611;28;20123;-81
2023/03/23 01:56:32;;;;;;;11.65;7.53;;;10.70;99.90;;;;;;5108244;28;20032;-81
2023/03/23 01:58:58;;;;;;;14.10;7.85;;;10.70;99.90;;;;;;5103687;28;20043;-81
2023/03/23 02:01:24;;;;;;;10.23;7.00;;;10.60;99.90;;;;;;5105670;28;20529;-81
2023/03/23 02:03:54;;;;;;;10.27;7.03;;;10.70;99.90;;;;;;5100076;28;20123;-81
2023/03/23 02:06:20;;;;;;;11.50;7.13;;;10.60;99.90;;;;;;5111740;28;20093;-81
2023/03/23 02:08:49;;;;;;;9.30;6.30;;;10.70;99.90;;;;;;5114679;27;20066;-82
2023/03/23 02:11:17;;;;;;;11.35;6.57;;;10.70;99.90;;;;;;5103297;28;20039;-82
2023/03/23 02:13:43;;;;;;;13.25;7.10;;;10.70;99.90;;;;;;5112477;28;20043;-82
2023/03/23 02:16:34;;;;;;;12.40;6.82;;;10.70;99.90;;;;;;5115502;27;20036;-82
2023/03/23 02:19:24;;;;;;;11.43;6.90;;;10.70;99.90;;;;;;5107247;27;20752;-81
2023/03/23 02:22:14;;;;;;;16.48;6.80;;;10.80;99.90;;;;;;5116362;27;20053;-82
2023/03/23 02:24:57;;;;;;;10.57;5.95;;;10.80;99.90;;;;;;5113961;27;20521;-81
2023/03/23 02:28:01;;;;;;;9.90;6.50;;;10.80;99.90;;;;;;5102258;27;20115;-82
2023/03/23 02:30:35;;;;;;;;;;;10.90;99.90;;;;;;5114747;27;20050;-82
2023/03/23 02:33:22;;;;;;;12.60;6.10;;;10.80;99.90;;;;;;5106461;27;19919;-82
2023/03/23 02:35:57;;;;;;;12.05;5.78;;;10.90;99.90;;;;;;5092023;28;20118;-82
2023/03/23 02:38:58;;;;;;;9.55;6.13;;;10.90;99.90;;;;;;5108705;27;20110;-82
2023/03/23 02:41:30;;;;;;;13.07;5.65;;;10.90;99.90;;;;;;5072160;28;20467;-82
2023/03/23 02:43:57;;;;;;;11.93;5.97;;;10.90;99.90;;;;;;5118403;27;20433;-82
2023/03/23 02:46:25;;;;;;;9.07;5.80;;;10.90;99.90;;;;;;5108319;27;20054;-81
2023/03/23 02:48:56;;;;;;;8.00;5.38;;;10.90;99.90;;;;;;5109851;28;20047;-82
2023/03/23 02:51:23;;;;;;;8.68;4.97;;;10.90;99.90;;;;;;5089892;28;20507;-81
2023/03/23 02:53:51;;;;;;;8.20;5.00;;;10.90;99.90;;;;;;5107617;28;20514;-81
2023/03/23 02:56:18;;;;;;;8.55;5.18;;;10.90;99.90;;;;;;5114283;27;20035;-82
2023/03/23 02:58:44;;;;;;;12.63;5.10;;;10.90;99.90;;;;;;5110550;27;20082;-81
2023/03/23 03:01:36;;;;;;;6.88;4.20;;;11.00;99.90;;;;;;5115857;27;20039;-82
2023/03/23 03:04:13;;;;;;;7.25;4.60;;;11.00;99.90;;;;;;5106127;28;20048;-81
2023/03/23 03:06:59;;;;;;;8.80;4.50;;;11.00;99.90;;;;;;5108471;28;20499;-82
2023/03/23 03:09:31;;;;;;;7.20;4.47;;;11.00;99.90;;;;;;5088361;27;20063;-81
2023/03/23 03:12:07;;;;;;;8.18;3.95;;;11.00;99.90;;;;;;5109369;28;20123;-82
2023/03/23 03:14:41;;;;;;;7.32;3.92;;;10.90;99.90;;;;;;5110242;28;20038;-83
2023/03/23 03:17:24;;;;;;;7.47;4.07;;;10.90;99.90;;;;;;5097963;28;20040;-82
2023/03/23 03:19:56;;;;;;;7.07;4.00;;;10.90;99.90;;;;;;5093405;28;20063;-82
2023/03/23 03:22:28;;;;;;;7.25;4.07;;;10.90;99.90;;;;;;5096386;28;20069;-82
2023/03/23 03:24:59;;;;;;;8.63;4.15;;;11.00;99.90;;;;;;5111233;28;20035;-82
2023/03/23 03:27:26;;;;;;;5.55;3.80;;;10.90;99.90;;;;;;5095098;28;20043;-81
2023/03/23 03:29:56;;;;;;;5.68;3.75;;;10.90;99.90;;;;;;5098148;28;20040;-82
2023/03/23 03:32:26;;;;;;;8.10;4.15;;;11.00;99.90;;;;;;5095232;28;20522;-82
2023/03/23 03:34:52;;;;;;;6.70;4.20;;;10.90;99.90;;;;;;5107142;27;20035;-82
2023/03/23 03:37:20;;;;;;;8.65;3.92;;;11.00;99.90;;;;;;5122908;27;20031;-82
2023/03/23 03:39:46;;;;;;;8.43;4.30;;;10.90;99.90;;;;;;5093669;28;20048;-82
2023/03/23 03:42:11;;;;;;;7.68;4.00;;;10.90;99.90;;;;;;5134118;27;20050;-82
2023/03/23 03:44:37;;;;;;;7.85;3.80;;;10.90;99.90;;;;;;5096819;28;20074;-81
2023/03/23 03:47:02;;;;;;;9.95;3.70;;;10.90;99.90;;;;;;5112868;27;20054;-82
2023/03/23 03:49:28;;;;;;;9.02;4.13;;;11.00;99.90;;;;;;5116150;27;20098;-82
2023/03/23 03:51:53;;;;;;;7.95;4.00;;;11.00;99.90;;;;;;5116556;27;20070;-83
2023/03/23 03:54:19;;;;;;;10.40;3.95;;;10.90;99.90;;;;;;5102376;27;20040;-82
2023/03/23 03:56:45;;;;;;;8.98;3.60;;;10.80;99.90;;;;;;5143809;27;20028;-81
2023/03/23 03:59:12;;;;;;;6.57;3.30;;;10.70;99.90;;;;;;5115027;27;20571;-81
2023/03/23 04:01:38;;;;;;;7.93;3.58;;;10.70;99.90;;;;;;5113922;27;20095;-82
2023/03/23 04:04:06;;;;;;;9.75;3.80;;;10.60;99.90;;;;;;5094550;28;20043;-82
2023/03/23 04:06:35;;;;;;;7.15;3.50;;;10.50;99.90;;;;;;5096229;28;20044;-81
2023/03/23 04:09:06;;;;;;;6.63;3.00;;;10.40;99.90;;;;;;5145219;27;20082;-82
2023/03/23 04:11:32;;;;;;;6.95;3.05;;;10.30;99.90;;;;;;5109288;27;20040;-81
2023/03/23 04:13:57;;;;;;;4.18;2.10;;;10.20;99.90;;;;;;5111192;28;20027;-81
2023/03/23 04:16:23;;;;;;;2.58;1.40;;;10.00;99.90;;;;;;5105486;28;20032;-81
2023/03/23 04:18:49;;;;;;;7.82;1.67;;;9.80;99.90;;;;;;5113428;28;20548;-80
2023/03/23 04:21:15;;;;;;;2.33;1.10;;;9.70;99.90;;;;;;5112633;27;20054;-81
2023/03/23 04:23:41;;;;;;;3.13;1.00;;;9.60;99.90;;;;;;5097528;27;20039;-81
2023/03/23 04:26:07;;;;;;;3.70;1.35;;;9.50;99.90;;;;;;5118607;27;20096;-81
2023/03/23 04:28:33;;;;;;;2.38;0.98;;;9.50;99.90;;;;;;5089424;28;20036;-80
2023/03/23 04:31:00;;;;;;;1.38;0.80;;;9.40;99.90;;;;;;5119977;27;20043;-81
2023/03/23 04:33:27;;;;;;;2.67;1.20;;;9.40;99.90;;;;;;5110088;27;20127;-81
2023/03/23 04:35:53;;;;;;;2.92;1.30;;;9.40;99.90;;;;;;5115374;27;20058;-81
2023/03/23 04:38:23;;;;;;;3.13;1.70;;;9.40;99.90;;;;;;5096934;28;20032;-80
2023/03/23 04:40:53;;;;;;;5.05;2.10;;;9.50;99.90;;;;;;5104572;27;20039;-80
2023/03/23 04:43:24;;;;;;;4.30;1.70;;;9.50;99.90;;;;;;5109104;28;20032;-81
2023/03/23 04:45:57;;;;;;;4.72;2.10;;;9.60;99.90;;;;;;5113113;27;20059;-81
2023/03/23 04:48:24;;;;;;;;;;;9.70;99.90;;;;;;5114510;27;20482;-81
2023/03/23 04:50:50;;;;;;;5.72;1.83;;;9.80;99.90;;;;;;5118300;27;19978;-81
2023/03/23 04:53:17;;;;;;;6.07;1.88;;;9.80;99.90;;;;;;5108745;28;20068;-82
2023/03/23 04:55:43;;;;;;;4.97;2.08;;;9.80;99.90;;;;;;5104306;28;20050;-82
2023/03/23 04:58:15;;;;;;;5.20;2.22;;;9.80;99.90;;;;;;5119741;27;20484;-82
2023/03/23 05:00:43;;;;;;;6.90;2.30;;;9.80;99.90;;;;;;5090300;28;20039;-80
2023/03/23 05:03:16;;;;;;;6.60;2.40;;;9.90;99.90;;;;;;5106547;28;20080;-81
2023/03/23 05:05:41;;;;;;;6.57;2.70;;;9.90;99.90;;;;;;5112359;27;20534;-81
2023/03/23 05:08:07;;;;;;;7.20;2.95;;;9.90;99.90;;;;;;5115280;27;20115;-81
2023/03/23 05:10:33;;;;;;;12.18;3.60;;;10.00;99.90;;;;;;5116097;27;20044;-81
2023/03/23 05:12:58;;;;;;;8.80;3.65;;;10.10;99.90;;;;;;5110472;28;20039;-81
2023/03/23 05:15:24;;;;;;;6.53;3.65;;;10.10;99.90;;;;;;5106905;28;20039;-81
2023/03/23 05:17:51;;;;;;;6.90;3.50;;;10.20;99.90;;;;;;5110491;28;20035;-81
2023/03/23 05:20:20;;;;;;;10.27;3.70;;;10.20;99.90;;;;;;5114065;28;20653;-81
2023/03/23 05:22:50;;;;;;;7.03;3.35;;;10.20;99.90;;;;;;5089929;28;20050;-81
2023/03/23 05:25:19;;;;;;;10.30;3.40;;;10.20;99.90;;;;;;5094515;28;20040;-80
2023/03/23 05:27:48;;;;;;;10.70;3.75;;;10.20;99.90;;;;;;5110626;27;20039;-81
2023/03/23 05:30:18;;;;;;;9.00;3.13;;;10.20;99.90;;;;;;5097028;28;20445;-81
2023/03/23 05:32:44;;;;;;;12.93;3.33;;;10.20;99.90;;;;;;5104943;28;20085;-80
2023/03/23 05:35:12;;;;;;;8.73;3.10;;;10.20;99.90;;;;;;5105424;28;20055;-80
2023/03/23 05:37:38;;;;;;;12.27;3.80;;;10.20;99.90;;;;;;5102562;28;20036;-81
2023/03/23 05:40:05;;;;;;;11.32;3.78;;;10.20;99.90;;;;;;5109688;28;20032;-82
2023/03/23 05:42:33;;;;;;;11.57;3.10;;;10.10;99.90;;;;;;5110839;27;20096;-81
2023/03/23 05:44:58;;;;;;;11.60;3.10;;;10.10;99.90;;;;;;5108314;28;20101;-81
2023/03/23 05:47:25;;;;;;;12.95;3.05;;;10.20;99.90;;;;;;5105454;27;20507;-81
2023/03/23 05:49:51;;;;;;;13.38;3.38;;;10.10;99.90;;;;;;5108042;28;20096;-81
2023/03/23 05:52:17;;;;;;;13.00;2.97;;;10.10;99.90;;;;;;5090370;28;20526;-81
2023/03/23 05:54:43;;;;;;;15.32;3.20;;;10.10;99.90;;;;;;5132631;27;20035;-81
2023/03/23 05:57:08;;;;;;;16.25;3.28;;;10.10;99.90;;;;;;5131671;27;20032;-81
2023/03/23 05:59:35;;;;;;;12.48;2.90;;;10.10;99.90;;;;;;5109642;27;20077;-81
2023/03/23 06:02:01;;;;;;;17.20;3.80;;;10.10;99.90;;;;;;5108040;28;20036;-80
2023/03/23 06:04:26;;;;;;;14.95;3.53;;;10.10;99.90;;;;;;5107328;27;20153;-80
2023/03/23 06:06:52;;;;;;;12.43;2.35;;;10.10;99.90;;;;;;5136006;27;20040;-80
2023/03/23 06:09:19;;;;;;;20.52;3.60;;;10.10;99.90;;;;;;5101417;27;20036;-81
2023/03/23 06:11:45;;;;;;;14.52;2.85;;;10.10;99.90;;;;;;5110216;28;20046;-81
2023/03/23 06:14:12;;;;;;;17.25;3.10;;;10.10;99.90;;;;;;5103961;27;20084;-81
2023/03/23 06:16:37;;;;;;;15.82;3.47;;;10.10;99.90;;;;;;5106628;27;20093;-81
2023/03/23 06:19:03;;;;;;;17.65;3.40;;;10.20;99.90;;;;;;5115381;27;20494;-81
2023/03/23 06:21:30;;;;;;;17.73;3.22;;;10.20;99.90;;;;;;5118399;27;20055;-81
2023/03/23 06:23:56;;;;;;;18.40;3.10;;;10.20;99.90;;;;;;5109880;28;20047;-81
2023/03/23 06:26:26;;;;;;;15.95;2.80;;;10.10;99.90;;;;;;5108183;27;20060;-81
2023/03/23 06:28:52;;;;;;;15.52;3.45;;;10.30;99.90;;;;;;5104288;28;20047;-82
2023/03/23 06:31:20;;;;;;;16.42;2.85;;;10.30;99.90;;;;;;5111114;27;20059;-81
2023/03/23 06:33:47;;;;;;;14.15;3.50;;;10.40;99.90;;;;;;5111405;27;20031;-82
2023/03/23 06:36:12;;;;;;;18.38;3.20;;;10.40;99.90;;;;;;5116601;27;20422;-82
2023/03/23 06:38:38;;;;;;;16.20;2.97;;;10.40;99.90;;;;;;5107063;28;20035;-80
2023/03/23 06:41:04;;;;;;;17.38;3.15;;;10.40;99.90;;;;;;5104457;27;20075;-80
2023/03/23 06:43:30;;;;;;;15.48;2.90;;;10.30;99.90;;;;;;5104028;28;20040;-80
2023/03/23 06:45:59;;;;;;;15.38;3.13;;;10.20;99.90;;;;;;5104374;28;20036;-80
2023/03/23 06:48:25;;;;;;;16.92;3.00;;;10.00;99.90;;;;;;5110187;28;20050;-80
2023/03/23 06:50:51;;;;;;;10.43;2.25;;;9.90;99.90;;;;;;5115996;27;20036;-79
2023/03/23 06:53:16;;;;;;;6.72;1.95;;;9.80;99.90;;;;;;5108100;28;20042;-80
2023/03/23 06:55:43;;;;;;;9.90;1.92;;;9.70;99.90;;;;;;5106975;28;20112;-80
2023/03/23 06:58:10;;;;;;;14.88;2.17;;;9.60;99.90;;;;;;5115737;27;20507;-80
2023/03/23 07:00:35;;;;;;;12.13;2.28;;;9.50;99.90;;;;;;5108546;28;20119;-79
2023/03/23 07:03:01;;;;;;;9.35;1.85;;;9.50;99.90;;;;;;5143987;27;20474;-80
2023/03/23 07:05:27;;;;;;;7.07;1.70;;;9.60;99.90;;;;;;5114490;27;20119;-80
2023/03/23 07:07:52;;;;;;;8.88;2.10;;;9.60;99.90;;;;;;5148150;27;20054;-79
2023/03/23 07:10:18;;;;;;;13.13;2.10;;;9.60;99.90;;;;;;5146451;27;20043;-80
2023/03/23 07:12:43;;;;;;;15.18;2.75;;;9.60;99.90;;;;;;5091990;28;20071;-79
2023/03/23 07:15:10;;;;;;;14.00;2.72;;;9.60;99.90;;;;;;5113356;28;20024;-79
2023/03/23 07:17:37;;;;;;;12.32;2.60;;;9.70;99.90;;;;;;5105642;28;20040;-79
2023/03/23 07:20:04;;;;;;;14.45;2.67;;;9.80;99.90;;;;;;5106964;28;20491;-80
2023/03/23 07:22:30;;;;;;;18.15;3.40;;;9.90;99.90;;;;;;5108021;28;20047;-79
2023/03/23 07:24:56;;;;;;;15.13;3.15;;;10.00;99.90;;;;;;5108777;28;20036;-80
2023/03/23 07:27:21;;;;;;;15.70;3.47;;;10.20;99.90;;;;;;5089214;28;20062;-80
2023/03/23 07:29:47;;;;;;;22.58;3.97;;;10.40;99.90;;;;;;5109008;28;20039;-80
2023/03/23 07:32:13;;;;;;;19.15;3.55;;;10.50;99.90;;;;;;5118877;27;20079;-79
2023/03/23 07:34:39;;;;;;;21.60;3.58;;;10.50;99.90;;;;;;5108099;28;20111;-81
2023/03/23 07:37:05;;;;;;;24.00;3.92;;;10.60;99.90;;;;;;5109676;28;20612;-80
2023/03/23 07:39:31;;;;;;;27.45;4.13;;;10.60;99.90;;;;;;5091895;28;20063;-80
2023/03/23 07:41:57;;;;;;;24.80;4.75;;;10.60;99.90;;;;;;5088145;28;20047;-80
2023/03/23 07:44:23;;;;;;;19.52;4.15;;;10.70;99.90;;;;;;5106240;28;20035;-79
2023/03/23 07:46:49;;;;;;;25.05;5.10;;;10.70;99.90;;;;;;5107626;28;20503;-81
2023/03/23 07:49:15;;;;;;;25.38;4.78;;;10.70;99.90;;;;;;5103375;28;20608;-80
2023/03/23 07:51:40;;;;;;;28.20;3.78;;;10.70;99.90;;;;;;5109107;28;20047;-81
2023/03/23 07:54:09;;;;;;;23.25;3.67;;;10.70;99.90;;;;;;5129363;27;20085;-80
2023/03/23 07:56:35;;;;;;;16.25;4.10;;;10.70;99.90;;;;;;5096494;28;20039;-80
2023/03/23 07:59:02;;;;;;;18.60;3.92;;;10.80;99.90;;;;;;5090466;28;20059;-80
2023/03/23 08:01:28;;;;;;;26.08;3.58;;;10.80;99.90;;;;;;5101754;28;20035;-81
2023/03/23 08:03:56;;;;;;;19.50;4.20;;;10.80;99.90;;;;;;5120744;28;20100;-80
2023/03/23 08:06:23;;;;;;;19.38;4.15;;;10.80;99.90;;;;;;5108869;28;20040;-80
2023/03/23 08:08:49;;;;;;;24.73;4.00;;;10.80;99.90;;;;;;5091112;28;20518;-80
2023/03/23 08:11:15;;;;;;;26.70;6.00;;;10.80;99.90;;;;;;5106144;28;20050;-81
2023/03/23 08:13:41;;;;;;;26.55;4.28;;;10.80;99.90;;;;;;5106367;28;20047;-80
2023/03/23 08:16:09;;;;;;;26.33;4.30;;;10.80;99.90;;;;;;5108488;28;20075;-80
2023/03/23 08:18:35;;;;;;;16.58;3.97;;;10.80;99.90;;;;;;5101137;27;20035;-81
2023/03/23 08:21:04;;;;;;;16.17;3.88;;;10.90;99.90;;;;;;5118789;27;20051;-80
2023/03/23 08:23:30;;;;;;;20.02;4.25;;;10.90;99.90;;;;;;5107858;28;20044;-80
2023/03/23 08:25:56;;;;;;;24.75;4.47;;;10.90;99.90;;;;;;5115080;27;20096;-81
2023/03/23 08:28:23;;;;;;;18.33;3.80;;;11.00;99.90;;;;;;5117899;27;20066;-80
2023/03/23 08:30:49;;;;;;;20.52;3.85;;;11.00;99.90;;;;;;5109451;27;20065;-80
2023/03/23 08:33:15;;;;;;;17.55;3.38;;;11.00;99.90;;;;;;5103635;28;20044;-80
2023/03/23 08:35:42;;;;;;;20.95;4.15;;;11.00;99.90;;;;;;5110835;27;20035;-80
2023/03/23 08:38:08;;;;;;;21.33;3.90;;;10.90;99.90;;;;;;5112862;28;20028;-80
2023/03/23 08:40:34;;;;;;;22.20;4.10;;;10.90;99.90;;;;;;5111283;28;20451;-81
2023/03/23 08:42:59;;;;;;;27.65;4.43;;;10.90;99.90;;;;;;5113051;28;20041;-80
2023/03/23 08:45:26;;;;;;;24.80;3.83;;;11.00;99.90;;;;;;5129653;27;20036;-81
2023/03/23 08:47:54;;;;;;;21.73;4.05;;;11.00;99.90;;;;;;5106759;28;20035;-80
2023/03/23 08:50:24;;;;;;;24.00;4.72;;;11.00;99.90;;;;;;5110817;28;20047;-80
2023/03/23 08:52:50;;;;;;;23.42;4.93;;;11.10;99.90;;;;;;5107114;28;20080;-81
2023/03/23 08:55:17;;;;;;;20.05;3.90;;;11.30;99.90;;;;;;5106982;28;20035;-80
2023/03/23 08:57:44;;;;;;;28.58;4.50;;;11.50;99.90;;;;;;5113490;28;20039;-81
2023/03/23 09:00:19;;;;;;;30.15;5.18;;;11.70;99.90;;;;;;5110613;28;20448;-80
2023/03/23 09:02:50;;;;;;;22.25;4.82;;;11.70;99.90;;;;;;5107069;28;20047;-81
2023/03/23 09:05:17;;;;;;;26.63;4.72;;;11.90;99.90;;;;;;5113345;28;20105;-80
2023/03/23 09:07:47;;;;;;;27.67;4.85;;;12.00;99.90;;;;;;5109783;28;20108;-81
2023/03/23 09:10:14;;;;;;;20.80;5.20;;;12.00;99.90;;;;;;5092332;28;20036;-80
2023/03/23 09:12:40;;;;;;;22.40;4.18;;;12.00;99.90;;;;;;5099970;28;20039;-80
2023/03/23 09:15:08;;;;;;;23.40;5.03;;;11.90;99.90;;;;;;5092740;28;20039;-80
2023/03/23 09:17:38;;;;;;;21.17;4.65;;;11.90;99.90;;;;;;5111217;28;20043;-81
2023/03/23 09:20:10;;;;;;;22.40;4.50;;;11.90;99.90;;;;;;5114245;28;20059;-82
2023/03/23 09:22:40;;;;;;;23.27;4.70;;;12.00;99.90;;;;;;5106377;28;20043;-80
2023/03/23 09:25:08;;;;;;;24.02;4.20;;;11.90;99.90;;;;;;5090444;28;20039;-81
2023/03/23 09:27:36;;;;;;;24.52;4.88;;;12.00;99.90;;;;;;5106465;28;20126;-82
2023/03/23 09:30:05;;;;;;;20.83;4.38;;;12.20;99.90;;;;;;5113597;28;20046;-81
2023/03/23 09:32:34;;;;;;;25.63;4.80;;;12.30;99.90;;;;;;5107417;28;20051;-82
2023/03/23 09:35:01;;;;;;;20.08;4.68;;;12.30;99.90;;;;;;5105766;28;20465;-82
2023/03/23 09:37:28;;;;;;;21.42;4.55;;;12.40;99.90;;;;;;5105265;28;20058;-82
2023/03/23 09:39:53;;;;;;;22.75;4.78;;;12.50;99.90;;;;;;5106968;28;20054;-82
2023/03/23 09:42:55;;;;;;;19.15;4.70;;;12.50;99.90;;;;;;5105292;28;20035;-81
2023/03/23 09:45:37;;;;;;;21.95;4.88;;;12.50;99.90;;;;;;5093650;28;20121;-81
2023/03/23 09:48:20;;;;;;;22.20;4.20;;;12.70;99.90;;;;;;5108534;28;20403;-80
2023/03/23 09:50:48;;;;;;;22.30;4.45;;;12.80;99.90;;;;;;5114433;28;20063;-80
2023/03/23 09:53:34;;;;;;;20.63;4.35;;;12.80;99.90;;;;;;5113854;28;20032;-81
2023/03/23 09:56:01;;;;;;;19.50;3.28;;;12.80;99.90;;;;;;5093764;28;20043;-80
2023/03/23 09:58:36;;;;;;;19.65;4.22;;;12.90;99.90;;;;;;5106724;28;20047;-79
2023/03/23 10:01:08;;;;;;;23.20;3.75;;;13.00;99.90;;;;;;5114163;28;20035;-80
2023/03/23 10:03:40;;;;;;;24.63;4.18;;;13.20;99.90;;;;;;5112600;28;20051;-80
2023/03/23 10:06:12;;;;;;;22.02;4.03;;;13.20;99.90;;;;;;5093191;28;20100;-80
2023/03/23 10:08:42;;;;;;;21.27;4.47;;;13.30;99.90;;;;;;5092674;28;20051;-80
2023/03/23 10:11:26;;;;;;;16.35;3.63;;;13.50;99.90;;;;;;5093764;28;20192;-80
2023/03/23 10:14:22;;;;;;;20.58;4.57;;;13.60;99.90;;;;;;5093905;28;20040;-80
2023/03/23 10:16:59;;;;;;;15.98;3.55;;;13.50;99.90;;;;;;5092619;28;20043;-80
2023/03/23 10:20:20;;;;;;;16.77;3.50;;;13.50;99.90;;;;;;5093240;28;20444;-80
2023/03/23 10:23:12;;;;;;;17.88;4.13;;;13.50;99.90;;;;;;5036842;28;20110;-80
2023/03/23 10:25:42;;;;;;;16.75;3.30;;;13.20;99.90;;;;;;5094096;28;20036;-80
2023/03/23 10:28:10;;;;;;;15.38;3.28;;;13.10;99.90;;;;;;5117455;27;20089;-80
2023/03/23 10:30:51;;;;;;;15.63;3.50;;;13.30;99.90;;;;;;5122158;27;20047;-79
2023/03/23 10:33:20;;;;;;;17.35;4.00;;;13.50;99.90;;;;;;5106916;27;20122;-80
2023/03/23 10:36:00;;;;;;;18.30;3.88;;;13.80;99.90;;;;;;5112129;27;20053;-80
2023/03/23 10:38:31;;;;;;;18.38;3.17;;;13.90;99.90;;;;;;5110306;28;20095;-80
2023/03/23 10:41:11;;;;;;;15.02;3.67;;;13.70;99.90;;;;;;5110385;27;20047;-80
2023/03/23 10:43:39;;;;;;;16.63;4.00;;;13.60;99.90;;;;;;5113864;27;20034;-80
2023/03/23 10:46:36;;;;;;;20.15;3.97;;;13.80;99.90;;;;;;5112057;27;20163;-80
2023/03/23 10:49:11;;;;;;;18.27;3.60;;;13.70;99.90;;;;;;5097280;27;20040;-81
2023/03/23 10:51:40;;;;;;;16.15;3.42;;;13.80;99.90;;;;;;5106066;28;20078;-81
2023/03/23 10:54:06;;;;;;;18.75;3.15;;;13.80;99.90;;;;;;5108964;28;20499;-81
2023/03/23 10:56:40;;;;;;;16.17;3.30;;;13.60;99.90;;;;;;5091992;28;20024;-80
2023/03/23 10:59:26;;;;;;;14.57;3.45;;;13.20;99.90;;;;;;5111772;27;20122;-80
2023/03/23 11:01:55;;;;;;;12.65;2.80;;;13.10;99.90;;;;;;5101010;28;20035;-81
2023/03/23 11:04:22;;;;;;;17.45;3.58;;;13.20;99.90;;;;;;5111503;28;20487;-81
2023/03/23 11:06:52;;;;;;;14.77;3.20;;;13.20;99.90;;;;;;5120015;27;20031;-80
2023/03/23 11:09:34;;;;;;;17.92;3.05;;;13.30;99.90;;;;;;5111934;28;20044;-80
2023/03/23 11:12:00;;;;;;;16.83;3.70;;;13.60;99.90;;;;;;5115556;28;20035;-80
2023/03/23 11:14:32;;;;;;;15.95;3.05;;;13.70;99.90;;;;;;5108642;28;20031;-81
2023/03/23 11:17:04;;;;;;;18.02;3.25;;;14.00;99.90;;;;;;5095837;28;20455;-80
2023/03/23 11:19:37;;;;;;;11.73;2.80;;;14.20;99.90;;;;;;5108433;27;20053;-79
2023/03/23 11:22:04;;;;;;;11.15;2.58;;;14.20;99.90;;;;;;5113861;28;20044;-80
2023/03/23 11:24:42;;;;;;;15.27;2.85;;;14.10;99.90;;;;;;5098043;28;20059;-81
2023/03/23 11:27:09;;;;;;;10.25;2.65;;;14.20;99.90;;;;;;5128385;27;20051;-80
2023/03/23 11:29:36;;;;;;;10.30;2.33;;;14.30;99.90;;;;;;5106993;28;20054;-80
2023/03/23 11:32:09;;;;;;;12.65;2.53;;;14.40;99.90;;;;;;5100227;28;20036;-80
2023/03/23 11:34:41;;;;;;;14.48;2.80;;;14.20;99.90;;;;;;5114791;28;20076;-80
2023/03/23 11:37:17;;;;;;;15.50;2.70;;;14.10;99.90;;;;;;5141196;27;20060;-80
2023/03/23 11:39:48;;;;;;;18.45;2.55;;;13.90;99.90;;;;;;5105802;28;20043;-80
2023/03/23 11:42:28;;;;;;;14.43;3.17;;;13.90;99.90;;;;;;5109967;28;20044;-80
2023/03/23 11:44:54;;;;;;;13.18;2.45;;;14.00;99.90;;;;;;5111829;28;20110;-80
2023/03/23 11:47:23;;;;;;;15.68;2.38;;;14.00;99.90;;;;;;5108841;28;20384;-80
2023/03/23 11:50:08;;;;;;;16.27;2.25;;;14.10;99.90;;;;;;5108373;28;20085;-80
2023/03/23 11:52:44;;;;;;;15.25;2.80;;;14.20;99.90;;;;;;5112878;28;20632;-79
2023/03/23 11:55:15;;;;;;;16.35;2.63;;;14.50;99.90;;;;;;5117871;27;20035;-80
2023/03/23 11:57:41;;;;;;;12.27;2.90;;;14.50;99.90;;;;;;5119131;27;20039;-80
2023/03/23 12:00:19;;;;;;;10.90;2.20;;;14.50;99.90;;;;;;5115905;28;20168;-80
2023/03/23 12:02:54;;;;;;;11.45;2.63;;;14.20;99.90;;;;;;5095199;27;20043;-80
2023/03/23 12:05:50;;;;;;;12.40;2.42;;;14.20;99.90;;;;;;5115516;28;20048;-80
2023/03/23 12:08:27;;;;;;;12.75;3.00;;;14.00;99.90;;;;;;5112404;28;20410;-81
2023/03/23 12:11:01;;;;;;;18.23;3.10;;;14.10;99.90;;;;;;5121135;27;20042;-80
2023/03/23 12:13:52;;;;;;;12.80;2.38;;;14.40;99.90;;;;;;5109824;28;20120;-80
2023/03/23 12:16:43;;;;;;;13.15;2.72;;;14.60;99.90;;;;;;5120011;27;20043;-80
2023/03/23 12:19:32;;;;;;;9.68;2.20;;;14.80;99.90;;;;;;5109052;28;20430;-80
2023/03/23 12:22:06;;;;;;;12.15;2.28;;;15.00;99.90;;;;;;5056612;28;20048;-80
2023/03/23 12:25:25;;;;;;;9.55;2.38;;;15.00;99.90;;;;;;5106683;28;20035;-80
2023/03/23 12:28:32;;;;;;;11.48;2.08;;;15.10;99.90;;;;;;5078805;28;20051;-80
2023/03/23 12:31:23;;;;;;;8.90;2.20;;;15.40;99.90;;;;;;5082977;28;20048;-80
2023/03/23 12:34:03;;;;;;;15.25;2.20;;;15.70;99.90;;;;;;5111219;28;20035;-80
2023/03/23 12:37:06;;;;;;;10.05;2.30;;;15.90;99.90;;;;;;5114533;28;20046;-80
2023/03/23 12:39:52;;;;;;;10.02;2.70;;;16.00;99.90;;;;;;5108990;27;20094;-80
2023/03/23 12:42:45;;;;;;;12.10;2.17;;;16.00;99.90;;;;;;5092453;28;20043;-82
2023/03/23 12:45:12;;;;;;;13.63;2.97;;;15.60;99.90;;;;;;5089580;28;20123;-80
2023/03/23 12:47:47;;;;;;;12.45;2.78;;;15.20;99.90;;;;;;5101527;27;20126;-79
2023/03/23 12:50:27;;;;;;;15.18;2.70;;;15.10;99.90;;;;;;5096870;28;20071;-79
2023/03/23 12:53:09;;;;;;;12.02;2.70;;;15.10;99.90;;;;;;5113987;27;20537;-80
2023/03/23 12:55:49;;;;;;;10.10;2.30;;;15.20;99.90;;;;;;5113257;27;20039;-80
2023/03/23 12:58:18;;;;;;;13.20;2.03;;;15.10;99.90;;;;;;5117631;27;20040;-79